Shana Des Slops — FFZR — position and weather

sailwx.info

Track history (hours):
 
Tides and Currents Weather Stations Pressure Air Temp Water Temp Dewpoint Dewpoint Depression Visibility Wind Speed Wind Dir Waves Ship Positions

Shana Des Slops

Last reported at 2014-Sep-21 11:31 UTC. Time now 2014-Sep-21 12:11 UTC.
Position N 43°24' E 004°60'.

Length 47 m; draft 3.2 m.

Type: Tanker. MMSI: 228003800.

Date/timePositionNaut miles runAvg speedWind from/ knotsBaromVisibWave heightAir tempDewpointWater temp
2014-Sep-21 11:31N 43°24' E 004°60'0 0.0
2014-Sep-21 10:31N 43°24' E 004°60'0 0.0
2014-Sep-21 09:31N 43°24' E 004°60'0 0.0
2014-Sep-21 08:31N 43°24' E 004°60'0 0.0
2014-Sep-21 07:31N 43°24' E 004°60'0 0.0
2014-Sep-21 06:31N 43°24' E 004°60'0 0.0
2014-Sep-21 05:31N 43°24' E 004°60'0 0.0
2014-Sep-21 04:31N 43°24' E 004°60'0 0.0
2014-Sep-21 03:31N 43°24' E 004°60'0 0.0
2014-Sep-21 02:31N 43°24' E 004°60'4 4.2
2014-Sep-21 01:34N 43°24' E 004°54'1 0.7
2014-Sep-21 00:31N 43°25' E 004°53'0 0.0
2014-Sep-20 23:31N 43°25' E 004°53'0 0.0
2014-Sep-20 22:31N 43°25' E 004°53'0 0.0
2014-Sep-20 21:31N 43°25' E 004°53'0 0.0
2014-Sep-20 20:31N 43°25' E 004°53'0 0.0
2014-Sep-20 19:31N 43°25' E 004°53'0 0.0
2014-Sep-20 18:31N 43°25' E 004°53'0 0.0
2014-Sep-20 17:31N 43°25' E 004°53'2 2.1
2014-Sep-20 16:34N 43°24' E 004°56'3 2.7
2014-Sep-20 15:32N 43°24' E 004°60'0 0.0
2014-Sep-20 14:32N 43°24' E 004°60'0 0.0
2014-Sep-20 13:32N 43°24' E 004°60'0 0.0
2014-Sep-20 12:32N 43°24' E 004°60'0 0.4
2014-Sep-20 11:32N 43°24' E 004°60'0 0.0
2014-Sep-20 10:32N 43°24' E 004°60'0 0.0
2014-Sep-20 09:32N 43°24' E 004°60'0 0.0
2014-Sep-20 08:33N 43°24' E 004°60'0 0.0
2014-Sep-20 07:33N 43°24' E 004°60'0 0.0
2014-Sep-20 06:33N 43°24' E 004°60'0 0.4
2014-Sep-20 05:31N 43°24' E 004°60'0 0.0
2014-Sep-20 04:28N 43°24' E 004°60'0 0.0
2014-Sep-20 03:33N 43°24' E 004°60'0 0.0
2014-Sep-20 02:33N 43°24' E 004°60'0 0.0
2014-Sep-20 01:33N 43°24' E 004°60'0 0.0
2014-Sep-20 00:33N 43°24' E 004°60'0 0.0
2014-Sep-19 23:33N 43°24' E 004°60'0 0.0
2014-Sep-19 22:33N 43°24' E 004°60'0 0.0
2014-Sep-19 21:33N 43°24' E 004°60'0 0.0
2014-Sep-19 20:33N 43°24' E 004°60'0 0.0
2014-Sep-19 19:33N 43°24' E 004°60'0 0.0
2014-Sep-19 18:33N 43°24' E 004°60'0 0.0
2014-Sep-19 17:33N 43°24' E 004°60'0 0.0
2014-Sep-19 16:33N 43°24' E 004°60'0 0.0
2014-Sep-19 15:33N 43°24' E 004°60'0 0.0
2014-Sep-19 14:33N 43°24' E 004°60'0 0.0
2014-Sep-19 13:33N 43°24' E 004°60'0 0.0
2014-Sep-19 12:33N 43°24' E 004°60'0 0.0
2014-Sep-19 11:33N 43°24' E 004°60'0 0.0
2014-Sep-19 10:33N 43°24' E 004°60'0 0.0
2014-Sep-19 09:33N 43°24' E 004°60'0 0.0
2014-Sep-19 08:33N 43°24' E 004°60'1 1.4
2014-Sep-19 07:33N 43°23' E 004°59'4 3.7
2014-Sep-19 06:32N 43°25' E 004°54'0 0.0
2014-Sep-19 05:32N 43°25' E 004°54'4 4.5
2014-Sep-19 04:33N 43°24' E 004°60'0 0.0
2014-Sep-19 03:33N 43°24' E 004°60'0 0.0
2014-Sep-19 02:33N 43°24' E 004°60'0 0.0
2014-Sep-19 01:31N 43°24' E 004°60'0 0.0
2014-Sep-19 00:31N 43°24' E 004°60'0 0.0
2014-Sep-18 23:31N 43°24' E 004°60'0 0.0
2014-Sep-18 22:28N 43°24' E 004°60'0 0.0
2014-Sep-18 21:31N 43°24' E 004°60'0 0.0
2014-Sep-18 20:31N 43°24' E 004°60'0 0.0
2014-Sep-18 19:31N 43°24' E 004°60'0 0.0
2014-Sep-18 18:31N 43°24' E 004°60'0 0.0
2014-Sep-18 17:31N 43°24' E 004°60'0 0.0
2014-Sep-18 16:31N 43°24' E 004°60'0 0.0
2014-Sep-18 15:31N 43°24' E 004°60'0 0.0
2014-Sep-18 14:31N 43°24' E 004°60'0 0.0
2014-Sep-18 13:31N 43°24' E 004°60'0 0.0
2014-Sep-18 12:31N 43°24' E 004°60'0 0.0
2014-Sep-18 11:31N 43°24' E 004°60'0 0.0
2014-Sep-18 10:28N 43°24' E 004°60'0 0.0
2014-Sep-18 09:31N 43°24' E 004°60'0 0.0
2014-Sep-18 08:31N 43°24' E 004°60'0 0.0
2014-Sep-18 07:31N 43°24' E 004°60'0 0.0
2014-Sep-18 06:31N 43°24' E 004°60'0 0.0
2014-Sep-18 05:31N 43°24' E 004°60'0 0.0
2014-Sep-18 04:31N 43°24' E 004°60'0 0.0
2014-Sep-18 03:31N 43°24' E 004°60'0 0.0
2014-Sep-18 02:31N 43°24' E 004°60'0 0.0
2014-Sep-18 01:31N 43°24' E 004°60'0 0.0
2014-Sep-18 00:31N 43°24' E 004°60'0 0.0
2014-Sep-17 23:31N 43°24' E 004°60'0 0.0
2014-Sep-17 22:31N 43°24' E 004°60'0 0.0
2014-Sep-17 21:31N 43°24' E 004°60'0 0.0
2014-Sep-17 20:31N 43°24' E 004°60'0 0.0
2014-Sep-17 19:31N 43°24' E 004°60'0 0.0
2014-Sep-17 18:31N 43°24' E 004°60'0 0.0
2014-Sep-17 17:31N 43°24' E 004°60'0 0.0
2014-Sep-17 16:31N 43°24' E 004°60'0 0.0
2014-Sep-17 15:28N 43°24' E 004°60'0 0.0
2014-Sep-17 14:31N 43°24' E 004°60'0 0.0
2014-Sep-17 13:31N 43°24' E 004°60'0 0.0
2014-Sep-17 12:31N 43°24' E 004°60'0 0.0
2014-Sep-17 11:31N 43°24' E 004°60'0 0.0
2014-Sep-17 10:31N 43°24' E 004°60'0 0.0
2014-Sep-17 09:31N 43°24' E 004°60'0 0.0
2014-Sep-17 08:31N 43°24' E 004°60'0 0.0
2014-Sep-17 07:31N 43°24' E 004°60'0 0.0
2014-Sep-17 06:31N 43°24' E 004°60'0 0.0
2014-Sep-17 05:31N 43°24' E 004°60'0 0.0
2014-Sep-17 04:31N 43°24' E 004°60'0 0.0
2014-Sep-17 03:31N 43°24' E 004°60'0 0.0
2014-Sep-17 02:31N 43°24' E 004°60'0 0.0
2014-Sep-17 01:31N 43°24' E 004°60'0 0.0
2014-Sep-17 00:31N 43°24' E 004°60'0 0.0
2014-Sep-16 23:31N 43°24' E 004°60'0 0.0
2014-Sep-16 22:31N 43°24' E 004°60'0 0.0
2014-Sep-16 21:31N 43°24' E 004°60'0 0.0
2014-Sep-16 20:31N 43°24' E 004°60'0 0.0
2014-Sep-16 19:31N 43°24' E 004°60'3 2.8
2014-Sep-16 18:19N 43°23' E 004°56'0 0.0
2014-Sep-16 17:25N 43°23' E 004°56'0 0.0
2014-Sep-16 16:33N 43°23' E 004°56'3 3.3
2014-Sep-16 15:33N 43°24' E 004°60'0 0.0
2014-Sep-16 14:33N 43°24' E 004°60'0 0.0
2014-Sep-16 13:33N 43°24' E 004°60'0 0.0
2014-Sep-16 12:33N 43°24' E 004°60'0 0.0
2014-Sep-16 11:33N 43°24' E 004°60'0 0.0
2014-Sep-16 10:33N 43°24' E 004°60'2 2.2
2014-Sep-16 09:33N 43°24' E 004°57'2 2.4
2014-Sep-16 08:34N 43°25' E 004°54'4 4.2
2014-Sep-16 07:31N 43°24' E 004°60'0 0.0
2014-Sep-16 06:31N 43°24' E 004°60'0 0.0
2014-Sep-16 05:31N 43°24' E 004°60'0 0.0
2014-Sep-16 04:31N 43°24' E 004°60'0 0.0
2014-Sep-16 03:31N 43°24' E 004°60'0 0.0
2014-Sep-16 02:31N 43°24' E 004°60'0 0.0
2014-Sep-16 01:28N 43°24' E 004°60'0 0.0
2014-Sep-16 00:31N 43°24' E 004°60'0 0.0
2014-Sep-15 23:31N 43°24' E 004°60'0 0.0
2014-Sep-15 22:31N 43°24' E 004°60'0 0.0
2014-Sep-15 21:31N 43°24' E 004°60'0 0.0
2014-Sep-15 20:31N 43°24' E 004°60'0 0.0
2014-Sep-15 19:31N 43°24' E 004°60'0 0.0
2014-Sep-15 18:31N 43°24' E 004°60'0 0.0
2014-Sep-15 17:31N 43°24' E 004°60'0 0.0
2014-Sep-15 16:31N 43°24' E 004°60'0 0.0
2014-Sep-15 15:31N 43°24' E 004°60'0 0.0
2014-Sep-15 14:31N 43°24' E 004°60'0 0.0
2014-Sep-15 13:31N 43°24' E 004°60'0 0.0
2014-Sep-15 12:31N 43°24' E 004°60'0 0.0
2014-Sep-15 11:31N 43°24' E 004°60'0 0.0
2014-Sep-15 10:31N 43°24' E 004°60'0 0.0
2014-Sep-15 09:31N 43°24' E 004°60'0 0.0
2014-Sep-15 08:31N 43°24' E 004°60'0 0.0
2014-Sep-15 07:31N 43°24' E 004°60'0 0.0
2014-Sep-15 06:31N 43°24' E 004°60'0 0.0
2014-Sep-15 05:31N 43°24' E 004°60'0 0.0
2014-Sep-15 04:31N 43°24' E 004°60'0 0.0
2014-Sep-15 03:32N 43°24' E 004°60'0 0.0
2014-Sep-15 02:32N 43°24' E 004°60'0 0.0
2014-Sep-15 01:32N 43°24' E 004°60'0 0.0
2014-Sep-15 00:32N 43°24' E 004°60'0 0.0
2014-Sep-14 23:32N 43°24' E 004°60'0 0.0
2014-Sep-14 22:32N 43°24' E 004°60'0 0.0
2014-Sep-14 21:32N 43°24' E 004°60'0 0.0
2014-Sep-14 20:32N 43°24' E 004°60'0 0.0
2014-Sep-14 19:32N 43°24' E 004°60'0 0.0
2014-Sep-14 18:32N 43°24' E 004°60'0 0.0
2014-Sep-14 17:32N 43°24' E 004°60'0 0.0
2014-Sep-14 16:32N 43°24' E 004°60'0 0.0
2014-Sep-14 15:32N 43°24' E 004°60'0 0.0
2014-Sep-14 14:32N 43°24' E 004°60'0 0.0
2014-Sep-14 13:32N 43°24' E 004°60'0 0.0
2014-Sep-14 12:32N 43°24' E 004°60'0 0.0
2014-Sep-14 11:32N 43°24' E 004°60'0 0.0
2014-Sep-14 10:32N 43°24' E 004°60'0 0.0
2014-Sep-14 09:32N 43°24' E 004°60'0 0.0
2014-Sep-14 08:32N 43°24' E 004°60'0 0.0
2014-Sep-14 07:32N 43°24' E 004°60'0 0.0
2014-Sep-14 06:32N 43°24' E 004°60'0 0.0
2014-Sep-14 05:32N 43°24' E 004°60'0 0.0
2014-Sep-14 04:32N 43°24' E 004°60'0 0.0
2014-Sep-14 03:32N 43°24' E 004°60'0 0.0
2014-Sep-14 02:32N 43°24' E 004°60'0 0.0
2014-Sep-14 01:32N 43°24' E 004°60'0 0.0
2014-Sep-13 21:32N 43°24' E 004°60'0 0.0
2014-Sep-13 20:32N 43°24' E 004°60'0 0.0
2014-Sep-13 19:32N 43°24' E 004°60'0 0.0
2014-Sep-13 18:32N 43°24' E 004°60'0 0.0
2014-Sep-13 17:32N 43°24' E 004°60'0 0.0
2014-Sep-13 16:32N 43°24' E 004°60'0 0.0
2014-Sep-13 15:32N 43°24' E 004°60'0 0.0
2014-Sep-13 14:32N 43°24' E 004°60'1 0.8
2014-Sep-13 13:33N 43°24' E 004°59'3 2.6
2014-Sep-13 12:29N 43°25' E 004°55'0 0.0
2014-Sep-13 11:32N 43°25' E 004°55'0 0.1
2014-Sep-13 10:34N 43°24' E 004°55'1 1.2
2014-Sep-13 09:33N 43°25' E 004°54'0 0.0
2014-Sep-13 08:32N 43°25' E 004°54'0 0.0
2014-Sep-13 07:33N 43°25' E 004°54'4 4.3
2014-Sep-13 06:32N 43°24' E 004°60'0 0.0
2014-Sep-13 05:32N 43°24' E 004°60'0 0.0
2014-Sep-13 04:32N 43°24' E 004°60'0 0.0
2014-Sep-13 03:32N 43°24' E 004°60'0 0.0
2014-Sep-13 02:32N 43°24' E 004°60'0 0.0
2014-Sep-13 01:32N 43°24' E 004°60'0 0.0
2014-Sep-13 00:32N 43°24' E 004°60'0 0.0
2014-Sep-12 23:32N 43°24' E 004°60'0 0.0
2014-Sep-12 22:33N 43°24' E 004°60'0 0.0
2014-Sep-12 21:32N 43°24' E 004°60'0 0.0
2014-Sep-12 20:33N 43°24' E 004°60'0 0.0
2014-Sep-12 19:32N 43°24' E 004°60'0 0.0
2014-Sep-12 18:33N 43°24' E 004°60'0 0.0
2014-Sep-12 17:32N 43°24' E 004°60'0 0.0
2014-Sep-12 16:32N 43°24' E 004°60'0 0.0
2014-Sep-12 15:33N 43°24' E 004°60'0 0.0
2014-Sep-12 14:30N 43°24' E 004°60'0 0.0
2014-Sep-12 13:32N 43°24' E 004°60'0 0.0
2014-Sep-12 12:32N 43°24' E 004°60'0 0.0
2014-Sep-12 11:33N 43°24' E 004°60'0 0.0
2014-Sep-12 10:32N 43°24' E 004°60'0 0.0
2014-Sep-12 09:33N 43°24' E 004°60'0 0.0
2014-Sep-12 08:33N 43°24' E 004°60'0 0.0
2014-Sep-12 07:33N 43°24' E 004°60'0 0.0
2014-Sep-12 06:32N 43°24' E 004°60'0 0.0
2014-Sep-12 05:32N 43°24' E 004°60'0 0.0
2014-Sep-12 04:32N 43°24' E 004°60'0 0.0
2014-Sep-12 03:32N 43°24' E 004°60'0 0.0
2014-Sep-12 02:32N 43°24' E 004°60'0 0.0
2014-Sep-12 01:32N 43°24' E 004°60'0 0.0
2014-Sep-12 00:32N 43°24' E 004°60'0 0.0
2014-Sep-11 23:29N 43°24' E 004°60'0 0.0
2014-Sep-11 22:32N 43°24' E 004°60'0 0.0
2014-Sep-11 21:32N 43°24' E 004°60'0 0.0
2014-Sep-11 20:32N 43°24' E 004°60'0 0.0
2014-Sep-11 19:32N 43°24' E 004°60'0 0.0
2014-Sep-11 18:32N 43°24' E 004°60'0 0.0
2014-Sep-11 17:32N 43°24' E 004°60'0 0.0
2014-Sep-11 16:32N 43°24' E 004°60'0 0.0
2014-Sep-11 15:32N 43°24' E 004°60'0 0.0
2014-Sep-11 14:32N 43°24' E 004°60'0 0.0
2014-Sep-11 13:32N 43°24' E 004°60'0 0.0
2014-Sep-11 12:32N 43°24' E 004°60'0 0.0
2014-Sep-11 11:32N 43°24' E 004°60'  
Track history (hours):
 
Tides and Currents Weather Stations Pressure Air Temp Water Temp Dewpoint Dewpoint Depression Visibility Wind Speed Wind Dir Waves Ship Positions

Shana Des Slops

Last reported at 2014-Sep-21 11:31 UTC. Time now 2014-Sep-21 12:11 UTC.
Position N 43°24' E 004°60'.

Length 47 m; draft 3.2 m.

Type: Tanker. MMSI: 228003800.

Date/timePositionNaut miles runAvg speedWind from/ knotsBaromVisibWave heightAir tempDewpointWater temp
2014-Sep-21 11:31N 43°24' E 004°60'0 0.0
2014-Sep-21 10:31N 43°24' E 004°60'0 0.0
2014-Sep-21 09:31N 43°24' E 004°60'0 0.0
2014-Sep-21 08:31N 43°24' E 004°60'0 0.0
2014-Sep-21 07:31N 43°24' E 004°60'0 0.0
2014-Sep-21 06:31N 43°24' E 004°60'0 0.0
2014-Sep-21 05:31N 43°24' E 004°60'0 0.0
2014-Sep-21 04:31N 43°24' E 004°60'0 0.0
2014-Sep-21 03:31N 43°24' E 004°60'0 0.0
2014-Sep-21 02:31N 43°24' E 004°60'4 4.2
2014-Sep-21 01:34N 43°24' E 004°54'1 0.7
2014-Sep-21 00:31N 43°25' E 004°53'0 0.0
2014-Sep-20 23:31N 43°25' E 004°53'0 0.0
2014-Sep-20 22:31N 43°25' E 004°53'0 0.0
2014-Sep-20 21:31N 43°25' E 004°53'0 0.0
2014-Sep-20 20:31N 43°25' E 004°53'0 0.0
2014-Sep-20 19:31N 43°25' E 004°53'0 0.0
2014-Sep-20 18:31N 43°25' E 004°53'0 0.0
2014-Sep-20 17:31N 43°25' E 004°53'2 2.1
2014-Sep-20 16:34N 43°24' E 004°56'3 2.7
2014-Sep-20 15:32N 43°24' E 004°60'0 0.0
2014-Sep-20 14:32N 43°24' E 004°60'0 0.0
2014-Sep-20 13:32N 43°24' E 004°60'0 0.0
2014-Sep-20 12:32N 43°24' E 004°60'0 0.4
2014-Sep-20 11:32N 43°24' E 004°60'0 0.0
2014-Sep-20 10:32N 43°24' E 004°60'0 0.0
2014-Sep-20 09:32N 43°24' E 004°60'0 0.0
2014-Sep-20 08:33N 43°24' E 004°60'0 0.0
2014-Sep-20 07:33N 43°24' E 004°60'0 0.0
2014-Sep-20 06:33N 43°24' E 004°60'0 0.4
2014-Sep-20 05:31N 43°24' E 004°60'0 0.0
2014-Sep-20 04:28N 43°24' E 004°60'0 0.0
2014-Sep-20 03:33N 43°24' E 004°60'0 0.0
2014-Sep-20 02:33N 43°24' E 004°60'0 0.0
2014-Sep-20 01:33N 43°24' E 004°60'0 0.0
2014-Sep-20 00:33N 43°24' E 004°60'0 0.0
2014-Sep-19 23:33N 43°24' E 004°60'0 0.0
2014-Sep-19 22:33N 43°24' E 004°60'0 0.0
2014-Sep-19 21:33N 43°24' E 004°60'0 0.0
2014-Sep-19 20:33N 43°24' E 004°60'0 0.0
2014-Sep-19 19:33N 43°24' E 004°60'0 0.0
2014-Sep-19 18:33N 43°24' E 004°60'0 0.0
2014-Sep-19 17:33N 43°24' E 004°60'0 0.0
2014-Sep-19 16:33N 43°24' E 004°60'0 0.0
2014-Sep-19 15:33N 43°24' E 004°60'0 0.0
2014-Sep-19 14:33N 43°24' E 004°60'0 0.0
2014-Sep-19 13:33N 43°24' E 004°60'0 0.0
2014-Sep-19 12:33N 43°24' E 004°60'0 0.0
2014-Sep-19 11:33N 43°24' E 004°60'0 0.0
2014-Sep-19 10:33N 43°24' E 004°60'0 0.0
2014-Sep-19 09:33N 43°24' E 004°60'0 0.0
2014-Sep-19 08:33N 43°24' E 004°60'1 1.4
2014-Sep-19 07:33N 43°23' E 004°59'4 3.7
2014-Sep-19 06:32N 43°25' E 004°54'0 0.0
2014-Sep-19 05:32N 43°25' E 004°54'4 4.5
2014-Sep-19 04:33N 43°24' E 004°60'0 0.0
2014-Sep-19 03:33N 43°24' E 004°60'0 0.0
2014-Sep-19 02:33N 43°24' E 004°60'0 0.0
2014-Sep-19 01:31N 43°24' E 004°60'0 0.0
2014-Sep-19 00:31N 43°24' E 004°60'0 0.0
2014-Sep-18 23:31N 43°24' E 004°60'0 0.0
2014-Sep-18 22:28N 43°24' E 004°60'0 0.0
2014-Sep-18 21:31N 43°24' E 004°60'0 0.0
2014-Sep-18 20:31N 43°24' E 004°60'0 0.0
2014-Sep-18 19:31N 43°24' E 004°60'0 0.0
2014-Sep-18 18:31N 43°24' E 004°60'0 0.0
2014-Sep-18 17:31N 43°24' E 004°60'0 0.0
2014-Sep-18 16:31N 43°24' E 004°60'0 0.0
2014-Sep-18 15:31N 43°24' E 004°60'0 0.0
2014-Sep-18 14:31N 43°24' E 004°60'0 0.0
2014-Sep-18 13:31N 43°24' E 004°60'0 0.0
2014-Sep-18 12:31N 43°24' E 004°60'0 0.0
2014-Sep-18 11:31N 43°24' E 004°60'0 0.0
2014-Sep-18 10:28N 43°24' E 004°60'0 0.0
2014-Sep-18 09:31N 43°24' E 004°60'0 0.0
2014-Sep-18 08:31N 43°24' E 004°60'0 0.0
2014-Sep-18 07:31N 43°24' E 004°60'0 0.0
2014-Sep-18 06:31N 43°24' E 004°60'0 0.0
2014-Sep-18 05:31N 43°24' E 004°60'0 0.0
2014-Sep-18 04:31N 43°24' E 004°60'0 0.0
2014-Sep-18 03:31N 43°24' E 004°60'0 0.0
2014-Sep-18 02:31N 43°24' E 004°60'0 0.0
2014-Sep-18 01:31N 43°24' E 004°60'0 0.0
2014-Sep-18 00:31N 43°24' E 004°60'0 0.0
2014-Sep-17 23:31N 43°24' E 004°60'0 0.0
2014-Sep-17 22:31N 43°24' E 004°60'0 0.0
2014-Sep-17 21:31N 43°24' E 004°60'0 0.0
2014-Sep-17 20:31N 43°24' E 004°60'0 0.0
2014-Sep-17 19:31N 43°24' E 004°60'0 0.0
2014-Sep-17 18:31N 43°24' E 004°60'0 0.0
2014-Sep-17 17:31N 43°24' E 004°60'0 0.0
2014-Sep-17 16:31N 43°24' E 004°60'0 0.0
2014-Sep-17 15:28N 43°24' E 004°60'0 0.0
2014-Sep-17 14:31N 43°24' E 004°60'0 0.0
2014-Sep-17 13:31N 43°24' E 004°60'0 0.0
2014-Sep-17 12:31N 43°24' E 004°60'0 0.0
2014-Sep-17 11:31N 43°24' E 004°60'0 0.0
2014-Sep-17 10:31N 43°24' E 004°60'0 0.0
2014-Sep-17 09:31N 43°24' E 004°60'0 0.0
2014-Sep-17 08:31N 43°24' E 004°60'0 0.0
2014-Sep-17 07:31N 43°24' E 004°60'0 0.0
2014-Sep-17 06:31N 43°24' E 004°60'0 0.0
2014-Sep-17 05:31N 43°24' E 004°60'0 0.0
2014-Sep-17 04:31N 43°24' E 004°60'0 0.0
2014-Sep-17 03:31N 43°24' E 004°60'0 0.0
2014-Sep-17 02:31N 43°24' E 004°60'0 0.0
2014-Sep-17 01:31N 43°24' E 004°60'0 0.0
2014-Sep-17 00:31N 43°24' E 004°60'0 0.0
2014-Sep-16 23:31N 43°24' E 004°60'0 0.0
2014-Sep-16 22:31N 43°24' E 004°60'0 0.0
2014-Sep-16 21:31N 43°24' E 004°60'0 0.0
2014-Sep-16 20:31N 43°24' E 004°60'0 0.0
2014-Sep-16 19:31N 43°24' E 004°60'3 2.8
2014-Sep-16 18:19N 43°23' E 004°56'0 0.0
2014-Sep-16 17:25N 43°23' E 004°56'0 0.0
2014-Sep-16 16:33N 43°23' E 004°56'3 3.3
2014-Sep-16 15:33N 43°24' E 004°60'0 0.0
2014-Sep-16 14:33N 43°24' E 004°60'0 0.0
2014-Sep-16 13:33N 43°24' E 004°60'0 0.0
2014-Sep-16 12:33N 43°24' E 004°60'0 0.0
2014-Sep-16 11:33N 43°24' E 004°60'0 0.0
2014-Sep-16 10:33N 43°24' E 004°60'2 2.2
2014-Sep-16 09:33N 43°24' E 004°57'2 2.4
2014-Sep-16 08:34N 43°25' E 004°54'4 4.2
2014-Sep-16 07:31N 43°24' E 004°60'0 0.0
2014-Sep-16 06:31N 43°24' E 004°60'0 0.0
2014-Sep-16 05:31N 43°24' E 004°60'0 0.0
2014-Sep-16 04:31N 43°24' E 004°60'0 0.0
2014-Sep-16 03:31N 43°24' E 004°60'0 0.0
2014-Sep-16 02:31N 43°24' E 004°60'0 0.0
2014-Sep-16 01:28N 43°24' E 004°60'0 0.0
2014-Sep-16 00:31N 43°24' E 004°60'0 0.0
2014-Sep-15 23:31N 43°24' E 004°60'0 0.0
2014-Sep-15 22:31N 43°24' E 004°60'0 0.0
2014-Sep-15 21:31N 43°24' E 004°60'0 0.0
2014-Sep-15 20:31N 43°24' E 004°60'0 0.0
2014-Sep-15 19:31N 43°24' E 004°60'0 0.0
2014-Sep-15 18:31N 43°24' E 004°60'0 0.0
2014-Sep-15 17:31N 43°24' E 004°60'0 0.0
2014-Sep-15 16:31N 43°24' E 004°60'0 0.0
2014-Sep-15 15:31N 43°24' E 004°60'0 0.0
2014-Sep-15 14:31N 43°24' E 004°60'0 0.0
2014-Sep-15 13:31N 43°24' E 004°60'0 0.0
2014-Sep-15 12:31N 43°24' E 004°60'0 0.0
2014-Sep-15 11:31N 43°24' E 004°60'0 0.0
2014-Sep-15 10:31N 43°24' E 004°60'0 0.0
2014-Sep-15 09:31N 43°24' E 004°60'0 0.0
2014-Sep-15 08:31N 43°24' E 004°60'0 0.0
2014-Sep-15 07:31N 43°24' E 004°60'0 0.0
2014-Sep-15 06:31N 43°24' E 004°60'0 0.0
2014-Sep-15 05:31N 43°24' E 004°60'0 0.0
2014-Sep-15 04:31N 43°24' E 004°60'0 0.0
2014-Sep-15 03:32N 43°24' E 004°60'0 0.0
2014-Sep-15 02:32N 43°24' E 004°60'0 0.0
2014-Sep-15 01:32N 43°24' E 004°60'0 0.0
2014-Sep-15 00:32N 43°24' E 004°60'0 0.0
2014-Sep-14 23:32N 43°24' E 004°60'0 0.0
2014-Sep-14 22:32N 43°24' E 004°60'0 0.0
2014-Sep-14 21:32N 43°24' E 004°60'0 0.0
2014-Sep-14 20:32N 43°24' E 004°60'0 0.0
2014-Sep-14 19:32N 43°24' E 004°60'0 0.0
2014-Sep-14 18:32N 43°24' E 004°60'0 0.0
2014-Sep-14 17:32N 43°24' E 004°60'0 0.0
2014-Sep-14 16:32N 43°24' E 004°60'0 0.0
2014-Sep-14 15:32N 43°24' E 004°60'0 0.0
2014-Sep-14 14:32N 43°24' E 004°60'0 0.0
2014-Sep-14 13:32N 43°24' E 004°60'0 0.0
2014-Sep-14 12:32N 43°24' E 004°60'0 0.0
2014-Sep-14 11:32N 43°24' E 004°60'0 0.0
2014-Sep-14 10:32N 43°24' E 004°60'0 0.0
2014-Sep-14 09:32N 43°24' E 004°60'0 0.0
2014-Sep-14 08:32N 43°24' E 004°60'0 0.0
2014-Sep-14 07:32N 43°24' E 004°60'0 0.0
2014-Sep-14 06:32N 43°24' E 004°60'0 0.0
2014-Sep-14 05:32N 43°24' E 004°60'0 0.0
2014-Sep-14 04:32N 43°24' E 004°60'0 0.0
2014-Sep-14 03:32N 43°24' E 004°60'0 0.0
2014-Sep-14 02:32N 43°24' E 004°60'0 0.0
2014-Sep-14 01:32N 43°24' E 004°60'0 0.0
2014-Sep-13 21:32N 43°24' E 004°60'0 0.0
2014-Sep-13 20:32N 43°24' E 004°60'0 0.0
2014-Sep-13 19:32N 43°24' E 004°60'0 0.0
2014-Sep-13 18:32N 43°24' E 004°60'0 0.0
2014-Sep-13 17:32N 43°24' E 004°60'0 0.0
2014-Sep-13 16:32N 43°24' E 004°60'0 0.0
2014-Sep-13 15:32N 43°24' E 004°60'0 0.0
2014-Sep-13 14:32N 43°24' E 004°60'1 0.8
2014-Sep-13 13:33N 43°24' E 004°59'3 2.6
2014-Sep-13 12:29N 43°25' E 004°55'0 0.0
2014-Sep-13 11:32N 43°25' E 004°55'0 0.1
2014-Sep-13 10:34N 43°24' E 004°55'1 1.2
2014-Sep-13 09:33N 43°25' E 004°54'0 0.0
2014-Sep-13 08:32N 43°25' E 004°54'0 0.0
2014-Sep-13 07:33N 43°25' E 004°54'4 4.3
2014-Sep-13 06:32N 43°24' E 004°60'0 0.0
2014-Sep-13 05:32N 43°24' E 004°60'0 0.0
2014-Sep-13 04:32N 43°24' E 004°60'0 0.0
2014-Sep-13 03:32N 43°24' E 004°60'0 0.0
2014-Sep-13 02:32N 43°24' E 004°60'0 0.0
2014-Sep-13 01:32N 43°24' E 004°60'0 0.0
2014-Sep-13 00:32N 43°24' E 004°60'0 0.0
2014-Sep-12 23:32N 43°24' E 004°60'0 0.0
2014-Sep-12 22:33N 43°24' E 004°60'0 0.0
2014-Sep-12 21:32N 43°24' E 004°60'0 0.0
2014-Sep-12 20:33N 43°24' E 004°60'0 0.0
2014-Sep-12 19:32N 43°24' E 004°60'0 0.0
2014-Sep-12 18:33N 43°24' E 004°60'0 0.0
2014-Sep-12 17:32N 43°24' E 004°60'0 0.0
2014-Sep-12 16:32N 43°24' E 004°60'0 0.0
2014-Sep-12 15:33N 43°24' E 004°60'0 0.0
2014-Sep-12 14:30N 43°24' E 004°60'0 0.0
2014-Sep-12 13:32N 43°24' E 004°60'0 0.0
2014-Sep-12 12:32N 43°24' E 004°60'0 0.0
2014-Sep-12 11:33N 43°24' E 004°60'0 0.0
2014-Sep-12 10:32N 43°24' E 004°60'0 0.0
2014-Sep-12 09:33N 43°24' E 004°60'0 0.0
2014-Sep-12 08:33N 43°24' E 004°60'0 0.0
2014-Sep-12 07:33N 43°24' E 004°60'0 0.0
2014-Sep-12 06:32N 43°24' E 004°60'0 0.0
2014-Sep-12 05:32N 43°24' E 004°60'0 0.0
2014-Sep-12 04:32N 43°24' E 004°60'0 0.0
2014-Sep-12 03:32N 43°24' E 004°60'0 0.0
2014-Sep-12 02:32N 43°24' E 004°60'0 0.0
2014-Sep-12 01:32N 43°24' E 004°60'0 0.0
2014-Sep-12 00:32N 43°24' E 004°60'0 0.0
2014-Sep-11 23:29N 43°24' E 004°60'0 0.0
2014-Sep-11 22:32N 43°24' E 004°60'0 0.0
2014-Sep-11 21:32N 43°24' E 004°60'0 0.0
2014-Sep-11 20:32N 43°24' E 004°60'0 0.0
2014-Sep-11 19:32N 43°24' E 004°60'0 0.0
2014-Sep-11 18:32N 43°24' E 004°60'0 0.0
2014-Sep-11 17:32N 43°24' E 004°60'0 0.0
2014-Sep-11 16:32N 43°24' E 004°60'0 0.0
2014-Sep-11 15:32N 43°24' E 004°60'0 0.0
2014-Sep-11 14:32N 43°24' E 004°60'0 0.0
2014-Sep-11 13:32N 43°24' E 004°60'0 0.0
2014-Sep-11 12:32N 43°24' E 004°60'0 0.0
2014-Sep-11 11:32N 43°24' E 004°60'  

Dump ship's entire track history